Time;durP1;ratioP1;P1;durP2;ratioP2;P2;SDS_P1;SDS_P2;PMS_P1;PMS_P2;Temp;Humidity;BMP_temperature;BMP_pressure;BME280_temperature;BME280_humidity;BME280_pressure;Samples;Min_cycle;Max_cycle;Signal;HPM_P1;HPM_P2
2022/12/20 00:00:55;;;;;;;8.57;3.57;;;;;;;15.74;51.20;101301.69;5113221;27;20027;-72
2022/12/20 00:03:20;;;;;;;6.13;4.13;;;;;;;15.87;51.27;101299.66;5132637;27;20497;-74
2022/12/20 00:05:46;;;;;;;5.27;3.20;;;;;;;15.96;51.98;101286.22;5114108;27;20026;-74
2022/12/20 00:08:12;;;;;;;5.70;3.63;;;;;;;16.20;51.33;101291.78;5131211;27;20123;-73
2022/12/20 00:10:39;;;;;;;5.20;3.23;;;;;;;17.24;48.34;101279.19;5111212;27;20064;-74
2022/12/20 00:13:05;;;;;;;5.77;3.67;;;;;;;16.74;48.70;101279.75;5113987;27;20031;-74
2022/12/20 00:15:31;;;;;;;4.67;3.30;;;;;;;16.50;49.34;101286.56;5131661;27;20023;-74
2022/12/20 00:17:57;;;;;;;4.63;3.40;;;;;;;16.55;50.11;101284.69;5113791;28;20408;-74
2022/12/20 00:20:22;;;;;;;6.53;2.83;;;;;;;16.36;50.27;101282.56;5111864;28;20022;-72
2022/12/20 00:22:48;;;;;;;5.47;2.77;;;;;;;16.38;49.70;101288.66;5114299;27;20087;-72
2022/12/20 00:25:13;;;;;;;8.20;3.77;;;;;;;16.47;49.84;101286.66;5137514;27;20037;-72
2022/12/20 00:27:38;;;;;;;6.37;3.70;;;;;;;16.72;49.50;101295.66;5118049;27;20031;-72
2022/12/20 00:30:05;;;;;;;5.87;3.10;;;;;;;17.08;48.82;101290.22;5120097;27;20065;-72
2022/12/20 00:32:30;;;;;;;5.70;3.50;;;;;;;16.48;49.76;101289.25;5120734;27;20030;-71
2022/12/20 00:34:57;;;;;;;9.33;3.77;;;;;;;16.39;49.98;101300.94;5118826;27;20081;-72
2022/12/20 00:37:22;;;;;;;5.63;3.33;;;;;;;17.43;47.20;101290.94;5136282;27;20493;-72
2022/12/20 00:39:47;;;;;;;8.13;3.60;;;;;;;16.72;48.92;101287.72;5120188;27;20034;-74
2022/12/20 00:42:14;;;;;;;7.07;3.20;;;;;;;16.91;49.35;101281.94;5119719;27;20106;-73
2022/12/20 00:44:39;;;;;;;6.47;3.77;;;;;;;16.72;50.89;101276.28;5118962;27;20031;-75
2022/12/20 00:47:05;;;;;;;8.97;3.83;;;;;;;16.83;51.10;101270.69;5138019;27;20042;-74
2022/12/20 00:49:30;;;;;;;7.87;3.97;;;;;;;16.38;52.62;101262.28;5138845;27;20082;-73
2022/12/20 00:51:56;;;;;;;7.47;3.43;;;;;;;15.98;52.95;101257.19;5117539;27;20707;-73
2022/12/20 00:54:21;;;;;;;9.60;4.33;;;;;;;15.90;54.96;101267.94;5119500;27;20027;-73
2022/12/20 00:56:46;;;;;;;5.07;3.60;;;;;;;16.32;54.58;101246.63;5136895;27;20496;-73
2022/12/20 00:59:12;;;;;;;8.43;3.77;;;;;;;15.75;57.00;101256.81;5118921;27;20038;-73
2022/12/20 01:01:37;;;;;;;5.10;3.73;;;;;;;15.88;56.85;101252.16;5119893;27;20058;-73
2022/12/20 01:04:03;;;;;;;5.73;3.90;;;;;;;16.08;57.83;101238.44;5120323;27;20038;-73
2022/12/20 01:06:29;;;;;;;7.97;4.33;;;;;;;15.73;58.42;101232.31;5117329;27;20035;-73
2022/12/20 01:08:56;;;;;;;8.77;4.77;;;;;;;16.76;54.78;101228.66;5118138;27;20035;-73
2022/12/20 01:11:26;;;;;;;8.07;4.17;;;;;;;15.81;57.11;101228.63;5119298;27;20047;-74
2022/12/20 01:13:54;;;;;;;7.70;4.60;;;;;;;16.83;55.38;101212.63;5119398;27;20027;-73
2022/12/20 01:16:37;;;;;;;6.60;4.23;;;;;;;16.15;58.08;101225.13;5138587;27;20084;-73
2022/12/20 01:19:03;;;;;;;9.18;4.50;;;;;;;15.72;57.82;101235.84;5136190;27;20490;-73
2022/12/20 01:21:29;;;;;;;6.40;4.37;;;;;;;15.85;58.55;101230.28;5135902;27;20030;-73
2022/12/20 01:23:55;;;;;;;7.20;4.43;;;;;;;16.56;56.47;101223.09;5119448;27;20027;-73
2022/12/20 01:26:23;;;;;;;8.40;4.40;;;;;;;16.55;56.36;101213.44;5117344;27;20015;-73
2022/12/20 01:28:53;;;;;;;6.27;4.37;;;;;;;15.82;59.49;101209.28;5138398;27;20019;-73
2022/12/20 01:31:19;;;;;;;7.43;4.50;;;;;;;15.87;58.37;101217.94;5119918;27;20466;-73
2022/12/20 01:33:46;;;;;;;7.77;4.10;;;;;;;16.32;57.70;101225.53;5119293;27;20496;-72
2022/12/20 01:36:15;;;;;;;8.83;4.67;;;;;;;15.39;59.20;101222.59;5130628;27;20521;-73
2022/12/20 01:38:41;;;;;;;12.50;4.73;;;;;;;16.41;57.06;101219.13;5115800;27;20027;-73
2022/12/20 01:41:07;;;;;;;6.20;4.20;;;;;;;15.88;58.01;101209.09;5116091;27;20015;-73
2022/12/20 01:43:55;;;;;;;8.30;4.53;;;;;;;16.07;57.21;101202.47;5116448;27;20023;-73
2022/12/20 01:46:23;;;;;;;7.70;4.33;;;;;;;15.99;58.36;101201.81;5115472;27;20057;-73
2022/12/20 01:49:18;;;;;;;9.30;4.77;;;;;;;16.54;56.29;101193.22;5114747;27;20022;-73
2022/12/20 01:51:50;;;;;;;8.67;4.50;;;;;;;16.38;56.18;101193.69;5095763;28;20088;-73
2022/12/20 01:54:22;;;;;;;7.50;4.18;;;;;;;15.99;58.36;101204.44;5095280;27;20126;-73
2022/12/20 01:56:55;;;;;;;7.43;4.57;;;;;;;15.53;59.36;101208.22;5116880;27;20390;-73
2022/12/20 01:59:20;;;;;;;7.43;4.20;;;;;;;15.77;58.78;101190.91;5115182;27;20497;-73
2022/12/20 02:01:46;;;;;;;8.43;4.03;;;;;;;15.94;57.79;101190.50;5115349;27;20051;-73
2022/12/20 02:04:11;;;;;;;7.27;4.30;;;;;;;15.73;59.60;101184.88;5133251;27;20484;-73
2022/12/20 02:06:37;;;;;;;5.67;3.90;;;;;;;15.64;59.01;101200.91;5115774;27;20038;-73
2022/12/20 02:09:05;;;;;;;6.07;4.23;;;;;;;15.86;59.10;101206.50;5115395;27;20371;-73
2022/12/20 02:11:30;;;;;;;8.60;4.10;;;;;;;16.41;56.88;101198.88;5113579;27;20031;-73
2022/12/20 02:14:13;;;;;;;6.60;4.27;;;;;;;16.06;59.20;101200.72;5114194;27;20035;-73
2022/12/20 02:16:47;;;;;;;;;;;;;;;16.49;56.09;101177.56;5114605;27;20023;-73
2022/12/20 02:19:50;;;;;;;9.43;4.10;;;;;;;16.02;58.66;101196.44;5113769;27;20042;-73
2022/12/20 02:22:34;;;;;;;5.57;4.20;;;;;;;15.82;59.57;101211.91;5114516;27;20038;-73
2022/12/20 02:25:02;;;;;;;7.10;4.27;;;;;;;15.69;61.06;101199.03;5113702;27;20038;-72
2022/12/20 02:27:40;;;;;;;10.10;4.80;;;;;;;15.56;61.77;101206.34;5115285;27;20041;-72
2022/12/20 02:30:13;;;;;;;7.83;4.03;;;;;;;16.28;57.72;101192.22;5112818;27;20039;-73
2022/12/20 02:32:50;;;;;;;4.83;3.97;;;;;;;16.00;58.36;101192.97;5115673;27;20023;-73
2022/12/20 02:35:21;;;;;;;10.20;4.30;;;;;;;15.84;60.28;101186.38;5133138;27;20122;-72
2022/12/20 02:37:48;;;;;;;9.83;4.27;;;;;;;15.68;59.72;101186.75;5113189;27;20026;-73
2022/12/20 02:40:16;;;;;;;6.63;4.10;;;;;;;16.06;58.40;101191.94;5133856;27;20116;-73
2022/12/20 02:42:43;;;;;;;5.63;4.00;;;;;;;16.32;57.40;101183.31;5113052;27;20141;-72
2022/12/20 02:45:16;;;;;;;6.53;4.53;;;;;;;16.34;56.88;101165.66;5114472;27;20470;-73
2022/12/20 02:47:47;;;;;;;8.43;3.95;;;;;;;16.11;57.24;101172.47;5114193;27;21063;-73
2022/12/20 02:50:17;;;;;;;8.23;4.33;;;;;;;15.96;57.21;101175.50;5114462;27;20034;-73
2022/12/20 02:52:43;;;;;;;9.20;4.00;;;;;;;16.05;57.33;101162.06;5132674;27;20031;-72
2022/12/20 02:55:09;;;;;;;8.87;3.97;;;;;;;16.17;57.26;101167.91;5113782;27;20112;-73
2022/12/20 02:58:07;;;;;;;9.03;4.10;;;;;;;16.24;56.39;101164.22;5110619;27;20479;-72
2022/12/20 03:00:39;;;;;;;5.37;3.90;;;;;;;16.07;56.70;101170.81;5119351;27;20027;-72
2022/12/20 03:03:23;;;;;;;8.60;3.88;;;;;;;16.04;57.02;101168.25;5115136;27;20042;-73
2022/12/20 03:05:52;;;;;;;7.20;4.10;;;;;;;16.94;53.30;101165.69;5114694;27;20470;-73
2022/12/20 03:08:19;;;;;;;8.83;4.07;;;;;;;17.45;52.37;101167.53;5114902;27;20474;-73
2022/12/20 03:10:45;;;;;;;5.07;4.00;;;;;;;16.82;53.77;101176.59;5110701;27;20027;-72
2022/12/20 03:13:10;;;;;;;9.23;4.23;;;;;;;16.21;54.93;101185.38;5113813;27;20535;-73
2022/12/20 03:15:35;;;;;;;5.67;4.00;;;;;;;16.95;53.76;101156.84;5133241;27;20031;-73
2022/12/20 03:18:01;;;;;;;4.80;3.90;;;;;;;16.62;53.69;101165.72;5132629;27;20076;-73
2022/12/20 03:20:27;;;;;;;7.47;4.67;;;;;;;16.89;53.52;101173.72;5113427;27;20034;-72
2022/12/20 03:22:52;;;;;;;8.47;4.10;;;;;;;16.69;53.67;101171.69;5114399;27;20071;-72
2022/12/20 03:25:18;;;;;;;10.33;3.93;;;;;;;17.18;52.35;101152.59;5130739;27;20367;-72
2022/12/20 03:27:43;;;;;;;7.47;4.33;;;;;;;17.23;51.62;101167.38;5125412;27;20095;-73
2022/12/20 03:30:09;;;;;;;5.97;4.00;;;;;;;16.47;53.22;101160.03;5128542;27;20031;-73
2022/12/20 03:32:35;;;;;;;5.50;3.70;;;;;;;15.91;54.95;101156.34;5132105;27;20034;-72
2022/12/20 03:35:00;;;;;;;9.10;4.20;;;;;;;16.38;54.72;101150.63;5114367;27;20096;-73
2022/12/20 03:37:25;;;;;;;7.83;4.37;;;;;;;16.11;56.03;101154.00;5112651;27;20031;-73
2022/12/20 03:39:51;;;;;;;6.93;4.30;;;;;;;16.61;54.89;101152.59;5130429;27;20458;-73
2022/12/20 03:42:16;;;;;;;6.37;4.20;;;;;;;15.83;56.50;101153.03;5114446;27;20092;-73
2022/12/20 03:44:42;;;;;;;6.33;3.90;;;;;;;16.30;55.69;101142.91;5114336;27;20031;-72
2022/12/20 03:47:07;;;;;;;9.27;4.67;;;;;;;16.52;55.32;101137.88;5112700;27;20047;-73
2022/12/20 03:49:32;;;;;;;6.90;4.27;;;;;;;16.55;54.30;101129.00;5130820;27;20058;-73
2022/12/20 03:51:58;;;;;;;9.77;4.27;;;;;;;16.16;56.72;101147.75;5110242;27;20619;-72
2022/12/20 03:54:23;;;;;;;9.07;3.97;;;;;;;16.36;55.79;101147.16;5112022;27;20039;-73
2022/12/20 03:56:48;;;;;;;6.10;4.33;;;;;;;16.22;56.45;101150.19;5113392;27;20035;-72
2022/12/20 03:59:15;;;;;;;8.23;3.73;;;;;;;16.18;56.06;101170.50;5112526;27;20019;-73
2022/12/20 04:01:40;;;;;;;6.50;4.07;;;;;;;16.36;54.90;101148.03;5112415;27;20466;-72
2022/12/20 04:04:14;;;;;;;6.27;3.60;;;;;;;16.87;54.69;101150.91;5129953;27;20066;-73
2022/12/20 04:06:40;;;;;;;5.33;3.40;;;;;;;16.51;56.38;101143.19;5125726;27;20031;-72
2022/12/20 04:09:05;;;;;;;7.80;3.37;;;;;;;16.48;56.41;101145.94;5112225;27;20034;-73
2022/12/20 04:11:31;;;;;;;4.77;3.67;;;;;;;16.22;58.15;101137.00;5132483;27;20031;-72
2022/12/20 04:13:56;;;;;;;5.63;3.60;;;;;;;15.84;60.11;101144.19;5131289;27;20439;-72
2022/12/20 04:16:26;;;;;;;7.00;3.40;;;;;;;16.56;57.57;101139.50;5113059;28;20395;-72
2022/12/20 04:18:51;;;;;;;5.70;3.97;;;;;;;16.85;56.09;101139.53;5110566;27;20342;-72
2022/12/20 04:21:25;;;;;;;7.73;3.47;;;;;;;16.93;57.13;101133.13;5111972;28;20027;-72
2022/12/20 04:23:50;;;;;;;7.00;3.70;;;;;;;16.30;58.67;101127.09;5132305;28;20027;-72
2022/12/20 04:26:16;;;;;;;6.03;3.77;;;;;;;16.85;58.12;101123.69;5131070;28;20196;-72
2022/12/20 04:28:42;;;;;;;9.90;4.60;;;;;;;17.20;57.32;101129.63;5130922;28;20031;-72
2022/12/20 04:31:07;;;;;;;7.13;3.53;;;;;;;16.28;59.38;101134.22;5112703;28;20042;-72
2022/12/20 04:33:33;;;;;;;7.37;4.43;;;;;;;16.09;62.88;101142.63;5130408;27;20106;-73
2022/12/20 04:35:58;;;;;;;7.20;4.57;;;;;;;16.94;58.52;101128.72;5112227;28;20027;-73
2022/12/20 04:38:24;;;;;;;5.00;3.87;;;;;;;16.50;61.25;101139.72;5099492;28;20035;-73
2022/12/20 04:40:52;;;;;;;8.27;4.20;;;;;;;16.73;61.04;101128.47;5110395;28;20549;-73
2022/12/20 04:43:17;;;;;;;7.23;4.37;;;;;;;17.21;58.94;101132.22;5109287;27;20023;-72
2022/12/20 04:45:44;;;;;;;7.20;4.37;;;;;;;16.37;63.77;101125.16;5111861;28;20054;-72
2022/12/20 04:48:10;;;;;;;7.47;4.07;;;;;;;16.54;63.27;101119.34;5130041;28;20026;-73
2022/12/20 04:50:36;;;;;;;7.67;4.77;;;;;;;16.84;61.22;101108.75;5111292;28;20029;-73
2022/12/20 04:55:46;;;;;;;7.77;4.30;;;;;;;16.27;63.21;101101.66;5131553;28;20073;-73
2022/12/20 04:58:11;;;;;;;11.03;4.43;;;;;;;16.85;61.63;101102.56;5129297;28;20478;-73
2022/12/20 05:00:37;;;;;;;7.63;4.30;;;;;;;16.35;64.02;101098.81;5110636;28;20035;-73
2022/12/20 05:03:02;;;;;;;9.83;5.13;;;;;;;17.13;60.57;101098.16;5111961;27;20055;-73
2022/12/20 05:05:28;;;;;;;5.03;3.73;;;;;;;16.74;62.03;101085.28;5112174;28;20027;-73
2022/12/20 05:07:54;;;;;;;7.40;4.97;;;;;;;17.21;62.01;101089.97;5128984;28;20027;-73
2022/12/20 05:10:20;;;;;;;6.80;4.57;;;;;;;16.99;60.53;101076.59;5114426;27;20027;-72
2022/12/20 05:12:45;;;;;;;8.60;4.43;;;;;;;17.17;58.34;101075.13;5132482;27;20046;-72
2022/12/20 05:15:11;;;;;;;8.20;4.00;;;;;;;17.80;56.37;101065.03;5132066;27;20521;-73
2022/12/20 05:17:37;;;;;;;6.37;4.20;;;;;;;17.36;58.29;101062.16;5112938;27;20494;-73
2022/12/20 05:20:04;;;;;;;6.13;4.27;;;;;;;17.68;56.79;101068.09;5133330;27;20478;-73
2022/12/20 05:27:58;;;;;;;5.93;4.53;;;;;;;17.61;57.58;101050.72;5135421;27;20050;-73
2022/12/20 05:30:24;;;;;;;10.20;4.93;;;;;;;17.71;57.03;101049.47;5105202;28;20031;-73
2022/12/20 05:32:50;;;;;;;7.40;4.40;;;;;;;17.06;58.59;101051.75;5108433;27;20042;-72
2022/12/20 05:35:16;;;;;;;10.00;4.40;;;;;;;17.01;58.96;101058.06;5117014;27;20027;-73
2022/12/20 05:37:41;;;;;;;7.13;4.70;;;;;;;18.03;55.21;101052.75;5133463;27;20027;-73
2022/12/20 05:40:07;;;;;;;9.87;4.30;;;;;;;17.09;59.25;101050.75;5114972;27;20031;-73
2022/12/20 05:42:33;;;;;;;8.03;4.57;;;;;;;17.20;58.55;101050.41;5133943;27;20031;-73
2022/12/20 05:44:59;;;;;;;8.70;5.07;;;;;;;17.15;56.62;101055.84;5132795;27;20091;-73
2022/12/20 05:47:25;;;;;;;8.33;5.00;;;;;;;17.68;56.26;101052.25;5115596;27;20027;-73
2022/12/20 05:49:51;;;;;;;7.80;4.80;;;;;;;17.47;56.24;101053.84;5132835;27;20019;-73
2022/12/20 05:52:16;;;;;;;9.67;4.93;;;;;;;17.77;55.15;101046.59;5114563;27;20400;-73
2022/12/20 05:54:42;;;;;;;7.33;4.20;;;;;;;18.12;53.96;101041.81;5133979;27;20031;-73
2022/12/20 05:57:07;;;;;;;7.43;4.13;;;;;;;17.68;55.06;101031.09;5115291;27;20030;-73
2022/12/20 05:59:32;;;;;;;9.03;4.00;;;;;;;17.69;54.83;101048.66;5114679;27;20027;-73
2022/12/20 06:01:58;;;;;;;6.47;3.90;;;;;;;18.11;53.17;101048.03;5133579;27;20047;-73
2022/12/20 06:04:23;;;;;;;7.20;3.83;;;;;;;17.67;54.27;101053.16;5114870;27;20075;-72
2022/12/20 06:06:48;;;;;;;6.87;3.93;;;;;;;17.62;54.25;101057.75;5115255;27;20034;-73
2022/12/20 06:09:14;;;;;;;6.87;3.43;;;;;;;17.48;55.49;101057.38;5114263;27;20023;-72
2022/12/20 06:11:39;;;;;;;6.70;3.60;;;;;;;18.08;53.43;101049.91;5132417;27;20118;-73
2022/12/20 06:14:05;;;;;;;7.00;3.80;;;;;;;18.21;52.67;101050.31;5114250;27;20452;-73
2022/12/20 06:16:30;;;;;;;6.00;3.37;;;;;;;17.98;52.76;101044.09;5115978;27;20023;-73
2022/12/20 06:18:56;;;;;;;9.70;3.90;;;;;;;17.19;56.27;101040.78;5115946;27;20019;-74
2022/12/20 06:21:21;;;;;;;9.97;3.53;;;;;;;17.22;54.22;101044.16;5114567;27;20030;-73
2022/12/20 06:23:47;;;;;;;9.30;3.30;;;;;;;17.54;52.96;101038.66;5130902;27;20038;-73
2022/12/20 06:26:12;;;;;;;5.80;3.23;;;;;;;17.44;53.09;101038.97;5114007;27;20168;-73
2022/12/20 06:28:41;;;;;;;6.37;3.50;;;;;;;17.84;51.41;101043.75;5133608;27;20100;-73
2022/12/20 06:31:08;;;;;;;7.07;3.10;;;;;;;17.39;53.18;101040.94;5115024;27;20019;-73
2022/12/20 06:33:33;;;;;;;4.20;3.10;;;;;;;17.72;51.82;101038.00;5114363;27;20027;-73
2022/12/20 06:35:59;;;;;;;7.50;3.33;;;;;;;17.91;51.93;101047.88;5114695;27;20020;-73
2022/12/20 06:38:24;;;;;;;5.07;3.53;;;;;;;17.96;50.96;101043.31;5113680;27;20029;-73
2022/12/20 06:40:50;;;;;;;3.83;3.07;;;;;;;17.70;52.10;101045.09;5133317;27;20027;-73
2022/12/20 06:43:15;;;;;;;5.00;3.30;;;;;;;16.98;53.45;101045.88;5133163;27;20505;-73
2022/12/20 06:45:41;;;;;;;7.27;3.80;;;;;;;17.12;53.01;101046.25;5115233;27;20114;-73
2022/12/20 06:48:06;;;;;;;7.20;3.63;;;;;;;17.22;52.93;101043.28;5111705;27;20031;-73
2022/12/20 06:50:32;;;;;;;6.33;3.53;;;;;;;17.74;50.80;101038.78;5113552;27;20035;-73
2022/12/20 06:52:57;;;;;;;5.73;3.60;;;;;;;17.38;52.23;101036.56;5114200;27;20031;-73
2022/12/20 06:55:23;;;;;;;9.80;3.83;;;;;;;17.91;51.24;101037.31;5133679;27;20041;-73
2022/12/20 06:57:48;;;;;;;6.40;3.13;;;;;;;18.04;50.92;101043.91;5130933;27;20019;-73
2022/12/20 07:00:14;;;;;;;5.47;3.43;;;;;;;18.05;50.34;101045.63;5115136;27;20451;-73
2022/12/20 07:02:40;;;;;;;4.70;3.37;;;;;;;17.09;52.39;101041.06;5129276;27;20104;-73
2022/12/20 07:05:05;;;;;;;7.63;3.60;;;;;;;17.05;52.70;101044.72;5114157;27;20035;-73
2022/12/20 07:07:31;;;;;;;7.77;3.60;;;;;;;16.98;53.32;101035.31;5132557;27;20035;-73
2022/12/20 07:09:56;;;;;;;5.00;3.33;;;;;;;17.42;52.64;101046.09;5113279;27;20137;-73
2022/12/20 07:12:22;;;;;;;6.27;3.00;;;;;;;17.27;52.10;101052.78;5133432;27;20061;-73
2022/12/20 07:14:48;;;;;;;5.17;3.03;;;;;;;17.38;52.33;101055.06;5133263;27;20478;-73
2022/12/20 07:17:14;;;;;;;5.47;3.30;;;;;;;17.62;51.95;101063.03;5110492;27;20523;-73
2022/12/20 07:19:39;;;;;;;6.20;3.20;;;;;;;18.15;50.48;101056.72;5113029;27;20061;-73
2022/12/20 07:22:05;;;;;;;4.33;2.77;;;;;;;17.29;52.86;101050.09;5130522;27;20405;-73
2022/12/20 07:24:31;;;;;;;5.83;3.07;;;;;;;17.79;52.63;101051.84;5112237;27;20027;-73
2022/12/20 07:26:57;;;;;;;7.03;3.37;;;;;;;17.25;54.41;101059.88;5117294;27;20043;-73
2022/12/20 07:29:22;;;;;;;5.73;3.40;;;;;;;17.42;53.37;101051.38;5109893;27;20547;-73
2022/12/20 07:31:48;;;;;;;7.30;3.27;;;;;;;16.86;55.12;101054.16;5111166;27;20109;-73
2022/12/20 07:34:13;;;;;;;7.70;3.60;;;;;;;17.59;54.16;101063.16;5112637;27;20122;-73
2022/12/20 07:36:39;;;;;;;5.70;3.43;;;;;;;17.63;52.95;101054.19;5114153;27;20049;-73
2022/12/20 07:39:04;;;;;;;5.23;3.40;;;;;;;17.05;53.95;101060.56;5113528;27;20015;-73
2022/12/20 07:41:30;;;;;;;5.97;3.17;;;;;;;16.55;55.85;101052.47;5112059;27;20065;-73
2022/12/20 07:43:58;;;;;;;7.30;3.70;;;;;;;17.00;55.16;101053.72;5128388;27;20353;-73
2022/12/20 07:46:23;;;;;;;8.53;4.03;;;;;;;16.76;56.05;101057.09;5112401;27;20034;-74
2022/12/20 07:48:49;;;;;;;6.03;3.70;;;;;;;18.02;52.07;101051.00;5110607;27;20379;-73
2022/12/20 07:51:20;;;;;;;6.17;3.70;;;;;;;17.30;54.30;101057.09;5114269;27;20068;-72
2022/12/20 07:53:53;;;;;;;8.00;3.80;;;;;;;17.02;56.35;101036.94;5127433;27;20528;-73
2022/12/20 07:56:21;;;;;;;11.23;4.17;;;;;;;17.15;56.08;101041.78;5112641;27;20092;-73
2022/12/20 07:58:49;;;;;;;5.43;3.43;;;;;;;16.31;60.49;101052.34;5113903;27;20023;-73
2022/12/20 08:01:15;;;;;;;6.70;4.20;;;;;;;17.08;56.45;101049.06;5113014;27;20072;-72
2022/12/20 08:03:48;;;;;;;8.43;4.53;;;;;;;16.64;58.63;101049.56;5112335;28;20533;-72
2022/12/20 08:06:15;;;;;;;6.23;3.70;;;;;;;17.09;56.87;101054.28;5128850;27;20018;-72
2022/12/20 08:08:48;;;;;;;7.57;4.17;;;;;;;16.92;58.17;101046.91;5113442;27;20023;-72
2022/12/20 08:11:15;;;;;;;11.85;5.07;;;;;;;17.21;56.25;101052.13;5109753;28;20035;-73
2022/12/20 08:13:41;;;;;;;9.80;4.43;;;;;;;17.04;56.80;101045.66;5129413;27;20019;-73
2022/12/20 08:16:07;;;;;;;9.93;4.03;;;;;;;18.09;53.66;101062.22;5111503;28;20038;-72
2022/12/20 08:18:32;;;;;;;9.93;4.97;;;;;;;17.61;54.94;101058.66;5089782;28;20042;-72
2022/12/20 08:20:57;;;;;;;7.20;4.30;;;;;;;16.85;56.25;101055.06;5105354;28;20034;-72
2022/12/20 08:23:23;;;;;;;7.03;4.10;;;;;;;16.80;57.51;101047.28;5112699;28;20463;-72
2022/12/20 08:25:49;;;;;;;12.30;4.20;;;;;;;16.69;58.01;101045.00;5130527;28;20030;-72
2022/12/20 08:28:14;;;;;;;7.10;4.40;;;;;;;16.69;58.26;101034.44;5127001;27;20031;-72
2022/12/20 08:30:39;;;;;;;5.70;4.47;;;;;;;16.73;56.50;101041.34;5110899;28;20030;-73
2022/12/20 08:33:05;;;;;;;11.60;5.63;;;;;;;17.44;55.11;101046.06;5130072;28;20125;-72
2022/12/20 08:35:30;;;;;;;9.80;5.93;;;;;;;15.98;59.75;101047.16;5124432;28;20020;-73
2022/12/20 08:37:56;;;;;;;8.33;5.20;;;;;;;16.55;58.85;101041.94;5107089;28;20019;-73
2022/12/20 08:40:21;;;;;;;10.77;4.80;;;;;;;16.38;59.42;101042.47;5112418;28;20470;-72
2022/12/20 08:42:47;;;;;;;7.87;6.00;;;;;;;17.35;57.02;101049.88;5109539;28;20027;-72
2022/12/20 08:45:12;;;;;;;9.33;5.23;;;;;;;16.75;57.61;101042.16;5115541;27;20375;-72
2022/12/20 08:47:38;;;;;;;6.93;5.23;;;;;;;16.98;56.44;101040.59;5115594;27;20058;-72
2022/12/20 08:50:04;;;;;;;6.00;3.90;;;;;;;16.00;64.17;101050.59;5101461;28;20027;-72
2022/12/20 08:52:30;;;;;;;9.13;4.07;;;;;;;15.84;62.63;101052.84;5096253;28;20020;-72
2022/12/20 08:54:56;;;;;;;8.30;3.50;;;;;;;17.15;61.44;101047.06;5100244;27;20382;-72
2022/12/20 08:57:21;;;;;;;6.20;3.87;;;;;;;16.49;63.69;101058.81;5114078;27;20056;-72
2022/12/20 08:59:46;;;;;;;8.77;3.97;;;;;;;16.31;61.77;101054.09;5114088;27;20019;-72
2022/12/20 09:02:12;;;;;;;10.17;4.60;;;;;;;16.14;63.76;101051.97;5114963;27;20136;-72
2022/12/20 09:04:37;;;;;;;8.37;3.70;;;;;;;16.53;63.78;101041.13;5114875;27;20743;-72
2022/12/20 09:07:03;;;;;;;8.97;3.73;;;;;;;17.24;59.26;101049.38;5129733;27;20502;-72
2022/12/20 09:09:29;;;;;;;8.87;4.10;;;;;;;17.28;58.78;101051.00;5129330;27;20039;-72
2022/12/20 09:11:54;;;;;;;8.07;3.37;;;;;;;16.84;60.29;101058.59;5135043;27;20027;-72
2022/12/20 09:14:20;;;;;;;10.00;3.60;;;;;;;16.63;63.41;101058.38;5133487;27;20080;-72
2022/12/20 09:16:46;;;;;;;7.23;3.73;;;;;;;17.07;61.34;101058.72;5115287;27;20027;-72
2022/12/20 09:19:13;;;;;;;8.93;4.23;;;;;;;16.90;62.49;101066.38;5111603;27;20015;-72
2022/12/20 09:21:38;;;;;;;7.60;3.80;;;;;;;16.42;62.99;101063.41;5116523;27;20059;-72
2022/12/20 09:24:05;;;;;;;12.17;4.00;;;;;;;16.61;63.74;101052.31;5111781;27;20576;-73
2022/12/20 09:26:31;;;;;;;6.93;4.03;;;;;;;16.94;63.11;101065.34;5103659;27;20099;-72
2022/12/20 09:28:56;;;;;;;5.43;4.07;;;;;;;16.97;63.64;101059.97;5123598;27;20032;-73
2022/12/20 09:31:24;;;;;;;6.67;4.30;;;;;;;17.04;63.16;101053.56;5132212;27;20026;-72
2022/12/20 09:33:53;;;;;;;6.33;4.40;;;;;;;16.66;63.84;101052.16;5114796;27;20027;-72
2022/12/20 09:36:20;;;;;;;9.60;4.37;;;;;;;16.25;65.58;101060.41;5111240;27;20562;-73
2022/12/20 09:38:47;;;;;;;7.73;4.20;;;;;;;16.84;64.41;101053.31;5124293;27;20047;-73
2022/12/20 09:41:33;;;;;;;11.70;4.63;;;;;;;16.84;64.23;101059.47;5115864;27;20049;-72
2022/12/20 09:44:03;;;;;;;7.87;3.83;;;;;;;16.63;66.20;101053.09;5130972;27;20033;-72
2022/12/20 09:46:28;;;;;;;7.53;4.03;;;;;;;16.63;65.46;101056.59;5114597;27;20080;-73
2022/12/20 09:48:54;;;;;;;11.63;4.53;;;;;;;16.99;62.35;101058.13;5132744;27;20031;-72
2022/12/20 09:52:03;;;;;;;6.77;4.37;;;;;;;16.92;63.68;101057.47;5113876;27;20027;-72
2022/12/20 09:54:49;;;;;;;11.07;4.87;;;;;;;16.97;63.71;101052.06;5115488;27;20015;-74
2022/12/20 09:57:22;;;;;;;9.73;4.90;;;;;;;16.54;66.81;101056.03;5109226;27;20019;-73
2022/12/20 09:59:48;;;;;;;6.23;4.23;;;;;;;16.21;67.98;101057.03;5122882;27;20026;-73
2022/12/20 10:02:19;;;;;;;12.10;4.93;;;;;;;16.66;66.56;101055.63;5114315;27;20043;-73
2022/12/20 10:04:44;;;;;;;8.17;4.40;;;;;;;16.93;64.69;101053.06;5115654;27;20031;-73
2022/12/20 10:07:10;;;;;;;12.60;4.30;;;;;;;16.53;64.64;101056.97;5112221;27;20497;-73
2022/12/20 10:10:07;;;;;;;10.07;5.20;;;;;;;16.77;65.57;101053.53;5134439;27;20497;-72
2022/12/20 10:13:02;;;;;;;8.50;5.63;;;;;;;16.43;67.67;101048.44;5113715;27;20038;-72
2022/12/20 10:15:36;;;;;;;8.50;4.70;;;;;;;16.55;67.73;101048.06;5111894;27;20039;-72
2022/12/20 10:18:16;;;;;;;10.60;4.60;;;;;;;16.82;65.88;101039.34;5114711;27;20023;-72
2022/12/20 10:21:30;;;;;;;7.63;5.10;;;;;;;16.83;65.13;101051.59;5133381;27;20031;-72
2022/12/20 10:24:10;;;;;;;10.07;5.10;;;;;;;16.39;67.15;101047.69;5012500;28;20025;-72
2022/12/20 10:26:36;;;;;;;6.73;4.80;;;;;;;16.95;65.09;101045.94;5026997;28;20108;-72
2022/12/20 10:29:01;;;;;;;7.03;4.80;;;;;;;16.90;65.22;101037.34;5090906;27;20050;-72
2022/12/20 10:31:27;;;;;;;6.93;4.33;;;;;;;17.24;62.41;101031.75;5127915;27;20030;-73
2022/12/20 10:33:52;;;;;;;9.87;5.43;;;;;;;17.74;60.94;101046.72;5114317;27;20023;-72
2022/12/20 10:36:22;;;;;;;7.63;4.77;;;;;;;17.13;64.21;101045.34;5115508;27;20023;-72
2022/12/20 10:38:51;;;;;;;13.97;5.20;;;;;;;17.19;64.19;101048.69;5113330;27;20033;-72
2022/12/20 10:41:19;;;;;;;12.47;6.50;;;;;;;16.62;66.16;101040.81;5128154;27;20023;-72
2022/12/20 10:43:48;;;;;;;10.90;5.60;;;;;;;16.81;66.05;101022.59;5131991;27;20023;-72
2022/12/20 10:46:17;;;;;;;8.90;5.23;;;;;;;15.67;70.69;101037.44;5133785;27;20435;-72
2022/12/20 10:48:45;;;;;;;14.57;5.20;;;;;;;15.95;69.45;101031.44;5114556;27;20024;-73
2022/12/20 10:51:11;;;;;;;11.83;6.10;;;;;;;16.90;68.82;101029.41;5133606;27;20019;-73
2022/12/20 10:53:53;;;;;;;11.43;5.43;;;;;;;17.10;66.01;101034.88;5131869;27;20415;-72
2022/12/20 10:56:27;;;;;;;8.50;4.95;;;;;;;16.72;64.05;101044.91;5131952;27;20026;-73
2022/12/20 10:58:59;;;;;;;11.47;7.73;;;;;;;16.76;66.78;101035.09;5115097;27;20069;-72
2022/12/20 11:01:34;;;;;;;10.23;6.22;;;;;;;17.48;64.31;101033.59;5133472;27;20129;-72
2022/12/20 11:04:19;;;;;;;11.07;5.77;;;;;;;16.73;67.49;101030.81;5114590;27;20042;-72
2022/12/20 11:06:45;;;;;;;9.83;6.10;;;;;;;17.22;64.65;101027.44;5131191;27;20045;-73
2022/12/20 11:09:27;;;;;;;13.87;7.17;;;;;;;17.33;63.74;101033.22;5113148;27;20113;-72
2022/12/20 11:12:13;;;;;;;13.13;6.80;;;;;;;17.65;63.19;101025.91;5114753;27;20039;-72
2022/12/20 11:14:40;;;;;;;15.47;6.87;;;;;;;17.59;63.41;101020.84;5114693;27;20023;-72
2022/12/20 11:17:24;;;;;;;9.23;6.47;;;;;;;17.49;63.64;101019.44;5112076;27;20035;-73
2022/12/20 11:19:50;;;;;;;11.77;5.83;;;;;;;17.94;64.50;101026.63;5114753;27;20105;-73
2022/12/20 11:22:51;;;;;;;12.33;6.50;;;;;;;18.13;60.43;101008.28;5133425;27;20114;-73
2022/12/20 11:25:36;;;;;;;10.33;6.53;;;;;;;17.28;65.56;101022.81;5028783;27;20133;-73
2022/12/20 11:28:23;;;;;;;12.10;6.37;;;;;;;17.08;64.68;101020.84;5112718;27;20034;-73
2022/12/20 11:31:20;;;;;;;10.87;5.87;;;;;;;16.94;66.27;101012.56;5113286;27;20498;-73
2022/12/20 11:34:07;;;;;;;12.10;5.90;;;;;;;17.15;67.37;101021.50;5114349;27;20106;-73
2022/12/20 11:36:57;;;;;;;13.37;6.30;;;;;;;17.71;63.94;101023.06;5131103;27;20035;-73
2022/12/20 11:39:30;;;;;;;13.10;6.10;;;;;;;16.94;69.48;101023.13;5111395;27;20037;-73